Terminal Aerodrome Forecast
Issued by NWS Bismarck, ND

Home | Current Version | Previous Version | Text Only | Print | Product List | Glossary Off
Versions: 1 2 3 4 5 6 7 8 9 10 11 12 13 14 15 16 17 18

000
FTUS43 KBIS 180800 AAA
TAFBIS
TAF AMD
KBIS 180802Z 1808/1906 18005KT P6SM OVC012
     FM181700 16010KT P6SM SCT007 SCT012
     FM181900 15015KT P6SM SCT025
     FM190100 16007KT P6SM SCT150=

USA.gov is the U.S. government's official web portal to all federal, state and local government web resources and services.